createdAt,value
2018-01-03T00:00:44.147Z,76.43
2018-01-03T00:03:11.671Z,76.32
2018-01-03T00:05:39.202Z,76.20
2018-01-03T00:08:24.506Z,76.88
2018-01-03T00:10:52.032Z,77.93
2018-01-03T00:13:19.546Z,77.74
2018-01-03T00:15:47.052Z,77.23
2018-01-03T00:18:14.565Z,78.31
2018-01-03T00:20:42.105Z,78.71
2018-01-03T00:23:09.611Z,78.91
2018-01-03T00:25:37.149Z,78.47
2018-01-03T00:28:04.687Z,78.85
2018-01-03T00:30:32.196Z,78.57
2018-01-03T00:32:59.713Z,78.12
2018-01-03T00:35:27.231Z,78.86
2018-01-03T00:37:54.751Z,79.28
2018-01-03T00:40:22.258Z,79.29
2018-01-03T00:42:49.780Z,78.86
2018-01-03T00:45:17.278Z,79.64
2018-01-03T00:47:44.802Z,79.88
2018-01-03T00:50:12.336Z,80.23
2018-01-03T00:52:39.842Z,79.96
2018-01-03T00:55:07.348Z,79.07
2018-01-03T00:57:34.871Z,79.02
2018-01-03T01:00:02.391Z,78.85
2018-01-03T01:02:29.893Z,80.34
2018-01-03T01:04:57.423Z,80.40
2018-01-03T01:07:24.922Z,80.32
2018-01-03T01:09:52.441Z,80.10
2018-01-03T01:12:19.963Z,80.87
2018-01-03T01:14:47.496Z,81.03
2018-01-03T01:17:15.004Z,80.36
2018-01-03T01:19:42.528Z,81.34
2018-01-03T01:22:10.072Z,82.13
2018-01-03T01:24:37.588Z,81.76
2018-01-03T01:27:05.121Z,81.75
2018-01-03T01:29:32.633Z,81.75
2018-01-03T01:32:00.152Z,81.61
2018-01-03T01:34:27.696Z,82.00
2018-01-03T01:36:55.197Z,84.01
2018-01-03T01:39:22.731Z,83.40
2018-01-03T01:41:50.251Z,83.41
2018-01-03T01:44:17.765Z,82.70
2018-01-03T01:46:45.303Z,82.41
2018-01-03T01:49:12.827Z,83.10
2018-01-03T01:51:40.347Z,81.69
2018-01-03T01:54:07.893Z,82.59
2018-01-03T01:56:35.444Z,82.76
2018-01-03T01:59:02.937Z,82.42
2018-01-03T02:01:30.446Z,82.55
2018-01-03T02:03:57.956Z,81.59
2018-01-03T02:06:25.476Z,81.66
2018-01-03T02:08:53.022Z,83.52
2018-01-03T02:11:20.550Z,82.79
2018-01-03T02:13:48.077Z,82.27
2018-01-03T02:16:15.983Z,83.31
2018-01-03T02:18:43.492Z,83.09
2018-01-03T02:21:10.997Z,83.13
2018-01-03T02:23:38.518Z,83.48
2018-01-03T02:26:06.078Z,86.20
2018-01-03T02:28:33.599Z,84.79
2018-01-03T02:31:01.101Z,83.22
2018-01-03T02:33:28.614Z,85.00
2018-01-03T02:35:56.149Z,85.36
2018-01-03T02:38:33.552Z,84.99
2018-01-03T02:41:01.057Z,86.09
2018-01-03T02:43:28.583Z,85.12
2018-01-03T02:45:56.096Z,86.21
2018-01-03T02:48:23.609Z,85.15
2018-01-03T02:50:51.101Z,84.42
2018-01-03T02:53:19.512Z,84.79
2018-01-03T02:55:47.017Z,84.16
2018-01-03T02:58:14.528Z,83.29
2018-01-03T03:00:42.057Z,84.07
2018-01-03T03:03:09.589Z,83.88
2018-01-03T03:05:37.102Z,83.43
2018-01-03T03:08:04.660Z,83.10
2018-01-03T03:10:32.159Z,82.77
2018-01-03T03:12:59.661Z,82.97
2018-01-03T03:15:27.178Z,81.79
2018-01-03T03:17:54.692Z,82.79
2018-01-03T03:20:22.197Z,82.35
2018-01-03T03:22:49.699Z,81.64
2018-01-03T03:25:17.207Z,81.21
2018-01-03T03:27:44.757Z,82.18
2018-01-03T03:30:12.278Z,82.32
2018-01-03T03:32:39.803Z,81.02
2018-01-03T03:35:07.318Z,82.11
2018-01-03T03:37:34.826Z,83.04
2018-01-03T03:40:02.364Z,82.76
2018-01-03T03:42:29.887Z,81.38
2018-01-03T03:44:57.387Z,81.86
2018-01-03T03:47:24.966Z,81.98
2018-01-03T03:49:52.442Z,81.67
2018-01-03T03:52:20.006Z,81.82
2018-01-03T03:54:47.486Z,82.20
2018-01-03T03:57:14.999Z,81.78
2018-01-03T03:59:42.513Z,80.41
2018-01-03T04:02:10.019Z,80.41
2018-01-03T04:04:37.513Z,79.57
2018-01-03T04:07:05.027Z,78.10
2018-01-03T04:09:32.546Z,78.38
2018-01-03T04:12:00.059Z,78.85
2018-01-03T04:14:27.566Z,78.51
2018-01-03T04:16:55.077Z,78.14
2018-01-03T04:19:22.596Z,77.52
2018-01-03T04:21:50.126Z,77.76
2018-01-03T04:24:17.639Z,77.64
2018-01-03T04:26:45.157Z,77.13
2018-01-03T04:29:12.678Z,76.78
2018-01-03T04:31:40.194Z,75.90
2018-01-03T04:34:07.718Z,76.28
2018-01-03T04:36:35.239Z,76.85
2018-01-03T04:39:03.532Z,77.10
2018-01-03T04:41:31.051Z,76.44
2018-01-03T04:43:58.553Z,76.75
2018-01-03T04:46:26.053Z,76.59
2018-01-03T04:48:53.563Z,77.27
2018-01-03T04:51:21.090Z,77.67
2018-01-03T04:53:48.627Z,76.86
2018-01-03T04:56:16.143Z,77.17
2018-01-03T04:58:43.648Z,76.89
2018-01-03T05:01:11.182Z,75.95
2018-01-03T05:03:38.719Z,76.58
2018-01-03T05:06:06.276Z,76.06
2018-01-03T05:08:33.787Z,76.41
2018-01-03T05:11:01.647Z,76.77
2018-01-03T05:13:29.284Z,76.32
2018-01-03T05:15:56.802Z,76.63
2018-01-03T05:18:24.351Z,77.30
2018-01-03T05:20:51.872Z,77.68
2018-01-03T05:23:19.407Z,78.01
2018-01-03T05:25:46.953Z,78.61
2018-01-03T05:28:14.510Z,80.54
2018-01-03T05:30:42.032Z,80.58
2018-01-03T05:33:09.562Z,81.12
2018-01-03T05:35:37.077Z,81.02
2018-01-03T05:38:04.574Z,81.44
2018-01-03T05:40:32.088Z,82.00
2018-01-03T05:42:59.601Z,82.83
2018-01-03T05:45:27.129Z,82.72
2018-01-03T05:47:54.669Z,82.95
2018-01-03T05:50:22.304Z,82.60
2018-01-03T05:52:49.797Z,82.85
2018-01-03T05:55:17.357Z,83.10
2018-01-03T05:57:44.898Z,83.13
2018-01-03T06:00:12.472Z,82.47
2018-01-03T06:02:39.989Z,82.34
2018-01-03T06:05:07.524Z,82.24
2018-01-03T06:07:35.103Z,81.67
2018-01-03T06:10:02.633Z,81.11
2018-01-03T06:12:30.172Z,80.97
2018-01-03T06:14:57.722Z,80.83
2018-01-03T06:17:25.247Z,80.26
2018-01-03T06:19:52.802Z,80.36
2018-01-03T06:22:20.347Z,80.93
2018-01-03T06:24:47.868Z,81.55
2018-01-03T06:27:15.419Z,82.77
2018-01-03T06:29:42.920Z,82.40
2018-01-03T06:32:10.447Z,81.77
2018-01-03T06:34:37.968Z,82.62
2018-01-03T06:37:05.516Z,82.88
2018-01-03T06:39:33.058Z,81.17
2018-01-03T06:42:00.559Z,81.30
2018-01-03T06:44:28.073Z,81.55
2018-01-03T06:46:55.604Z,81.70
2018-01-03T06:49:23.122Z,81.05
2018-01-03T06:51:50.639Z,80.50
2018-01-03T06:54:18.177Z,80.06
2018-01-03T06:56:45.697Z,80.49
2018-01-03T06:59:13.218Z,79.55
2018-01-03T07:01:40.738Z,79.93
2018-01-03T07:04:08.244Z,79.19
2018-01-03T07:06:35.778Z,79.34
2018-01-03T07:09:03.298Z,78.34
2018-01-03T07:11:30.824Z,77.26
2018-01-03T07:13:58.347Z,76.86
2018-01-03T07:16:25.889Z,77.15
2018-01-03T07:18:53.417Z,78.69
2018-01-03T07:21:20.939Z,78.92
2018-01-03T07:23:48.475Z,79.97
2018-01-03T07:26:16.012Z,79.91
2018-01-03T07:28:43.588Z,80.19
2018-01-03T07:31:11.153Z,80.63
2018-01-03T07:33:38.672Z,82.01
2018-01-03T07:36:06.223Z,82.31
2018-01-03T07:38:33.740Z,82.21
2018-01-03T07:41:01.286Z,80.90
2018-01-03T07:43:28.815Z,82.49
2018-01-03T07:45:56.348Z,84.98
2018-01-03T07:48:23.867Z,81.43
2018-01-03T07:50:51.419Z,100.00
2018-01-03T07:53:19.083Z,100.00
2018-01-03T07:55:46.659Z,100.00
2018-01-03T07:58:14.197Z,100.00
2018-01-03T08:00:41.749Z,100.00
2018-01-03T08:03:09.284Z,100.00
2018-01-03T08:05:36.825Z,100.00
2018-01-03T08:08:04.377Z,100.00
2018-01-03T08:10:31.929Z,100.00
2018-01-03T08:12:59.500Z,100.00
2018-01-03T08:15:27.054Z,100.00
2018-01-03T08:17:54.629Z,100.00
2018-01-03T08:20:22.157Z,100.00
2018-01-03T08:22:49.730Z,100.00
2018-01-03T08:25:17.235Z,100.00
2018-01-03T08:27:44.796Z,100.00
2018-01-03T08:30:12.329Z,100.00
2018-01-03T08:32:39.872Z,100.00
2018-01-03T08:35:07.444Z,100.00
2018-01-03T08:37:35.004Z,100.00
2018-01-03T08:40:02.551Z,100.00
2018-01-03T08:42:30.108Z,100.00
2018-01-03T08:44:57.635Z,100.00
2018-01-03T08:47:25.179Z,100.00
2018-01-03T08:49:52.724Z,100.00
2018-01-03T08:52:20.260Z,100.00
2018-01-03T08:54:47.824Z,100.00
2018-01-03T08:57:15.389Z,100.00
2018-01-03T08:59:42.945Z,100.00
2018-01-03T09:02:10.489Z,100.00
2018-01-03T09:04:38.039Z,100.00
2018-01-03T09:07:05.581Z,100.00
2018-01-03T09:09:33.168Z,100.00
2018-01-03T09:12:00.725Z,100.00
2018-01-03T09:14:28.275Z,100.00
2018-01-03T09:16:55.815Z,100.00
2018-01-03T09:19:23.351Z,100.00
2018-01-03T09:21:50.891Z,100.00
2018-01-03T09:24:18.438Z,100.00
2018-01-03T09:26:45.958Z,100.00
2018-01-03T09:29:13.498Z,100.00
2018-01-03T09:31:41.092Z,100.00
2018-01-03T09:34:08.620Z,100.00
2018-01-03T09:36:36.265Z,100.00
2018-01-03T09:39:03.838Z,100.00
2018-01-03T09:41:31.386Z,100.00
2018-01-03T09:43:59.044Z,100.00
2018-01-03T09:46:26.610Z,100.00
2018-01-03T09:48:54.134Z,100.00
2018-01-03T09:51:21.683Z,100.00
2018-01-03T09:53:49.211Z,100.00
2018-01-03T09:56:17.276Z,100.00
2018-01-03T09:58:44.808Z,100.00
2018-01-03T10:01:12.355Z,100.00
2018-01-03T10:03:39.918Z,100.00
2018-01-03T10:06:07.456Z,100.00
2018-01-03T10:08:35.052Z,100.00
2018-01-03T10:11:02.610Z,100.00
2018-01-03T10:13:30.195Z,100.00
2018-01-03T10:15:57.746Z,100.00
2018-01-03T10:18:25.293Z,100.00
2018-01-03T10:20:52.871Z,100.00
2018-01-03T10:23:20.435Z,100.00
2018-01-03T10:25:47.976Z,100.00
2018-01-03T10:28:15.557Z,100.00
2018-01-03T10:30:43.186Z,100.00
2018-01-03T10:33:10.736Z,100.00
2018-01-03T10:42:24.135Z,100.00
2018-01-03T10:44:51.791Z,100.00
2018-01-03T10:47:19.336Z,100.00
2018-01-03T10:49:46.879Z,100.00
2018-01-03T10:52:14.459Z,100.00
2018-01-03T10:54:42.005Z,100.00
2018-01-03T10:57:09.544Z,100.00
2018-01-03T10:59:37.262Z,100.00
2018-01-03T11:02:04.804Z,100.00
2018-01-03T11:04:32.354Z,100.00
2018-01-03T11:06:59.889Z,100.00
2018-01-03T11:09:27.444Z,100.00
2018-01-03T11:11:54.990Z,100.00
2018-01-03T11:14:22.555Z,100.00
2018-01-03T11:16:50.095Z,100.00
2018-01-03T11:19:17.645Z,100.00
2018-01-03T11:21:45.180Z,100.00
2018-01-03T11:24:12.736Z,100.00
2018-01-03T11:26:40.290Z,100.00
2018-01-03T11:29:07.837Z,100.00
2018-01-03T11:31:35.393Z,100.00
2018-01-03T11:34:02.934Z,100.00
2018-01-03T11:36:30.511Z,100.00
2018-01-03T11:38:58.044Z,100.00
2018-01-03T11:41:25.602Z,100.00
2018-01-03T11:43:53.169Z,100.00
2018-01-03T11:46:20.704Z,100.00
2018-01-03T11:48:48.261Z,100.00
2018-01-03T11:51:16.014Z,100.00
2018-01-03T11:53:43.554Z,100.00
2018-01-03T11:56:11.095Z,100.00
2018-01-03T11:58:38.639Z,100.00
2018-01-03T12:01:06.173Z,100.00
2018-01-03T12:03:33.736Z,100.00
2018-01-03T12:06:01.404Z,100.00
2018-01-03T12:08:28.950Z,100.00
2018-01-03T12:10:56.491Z,100.00
2018-01-03T12:13:24.036Z,100.00
2018-01-03T12:15:51.573Z,100.00
2018-01-03T12:18:19.109Z,100.00
2018-01-03T12:20:46.644Z,100.00
2018-01-03T12:23:14.171Z,100.00
2018-01-03T12:25:41.713Z,100.00
2018-01-03T12:28:09.259Z,100.00
2018-01-03T12:30:36.804Z,100.00
2018-01-03T12:33:04.355Z,100.00
2018-01-03T12:35:31.884Z,100.00
2018-01-03T12:37:59.427Z,100.00
2018-01-03T12:40:26.971Z,100.00
2018-01-03T12:42:54.545Z,100.00
2018-01-03T12:45:22.092Z,100.00
2018-01-03T12:47:49.711Z,100.00
2018-01-03T12:50:17.264Z,100.00
2018-01-03T12:52:44.810Z,100.00
2018-01-03T12:55:12.355Z,100.00
2018-01-03T12:57:39.900Z,100.00
2018-01-03T13:00:07.474Z,100.00
2018-01-03T13:02:35.032Z,100.00
2018-01-03T13:05:02.599Z,100.00
2018-01-03T13:07:30.163Z,100.00
2018-01-03T13:09:57.724Z,100.00
2018-01-03T13:12:25.269Z,100.00
2018-01-03T13:14:52.819Z,100.00
2018-01-03T13:17:20.376Z,100.00
2018-01-03T13:19:47.920Z,100.00
2018-01-03T13:22:15.449Z,100.00
2018-01-03T13:24:42.969Z,100.00
2018-01-03T13:27:10.495Z,100.00
2018-01-03T13:29:38.036Z,100.00
2018-01-03T13:32:05.587Z,100.00
2018-01-03T13:34:33.131Z,100.00
2018-01-03T13:37:00.675Z,100.00
2018-01-03T13:39:28.214Z,100.00
2018-01-03T13:41:55.745Z,100.00
2018-01-03T13:44:23.274Z,100.00
2018-01-03T13:46:50.824Z,100.00
2018-01-03T13:49:18.400Z,100.00
2018-01-03T13:51:45.929Z,100.00
2018-01-03T13:54:13.487Z,100.00
2018-01-03T13:56:41.054Z,100.00
2018-01-03T13:59:08.615Z,100.00
2018-01-03T14:01:36.165Z,100.00
2018-01-03T14:04:03.702Z,100.00
2018-01-03T14:06:31.225Z,100.00
2018-01-03T14:08:58.780Z,100.00
2018-01-03T14:11:26.330Z,100.00
2018-01-03T14:13:53.872Z,100.00
2018-01-03T14:16:21.400Z,100.00
2018-01-03T14:18:48.941Z,100.00
2018-01-03T14:21:16.484Z,100.00
2018-01-03T14:23:44.041Z,100.00
2018-01-03T14:26:11.611Z,100.00
2018-01-03T14:28:39.155Z,100.00
2018-01-03T14:31:06.701Z,100.00
2018-01-03T14:33:34.243Z,100.00
2018-01-03T14:36:01.822Z,100.00
2018-01-03T14:38:29.410Z,100.00
2018-01-03T14:40:56.921Z,100.00
2018-01-03T14:43:24.459Z,100.00
2018-01-03T14:45:51.996Z,100.00
2018-01-03T14:48:19.540Z,100.00
2018-01-03T14:50:47.290Z,100.00
2018-01-03T14:53:14.827Z,100.00
2018-01-03T14:55:42.360Z,100.00
2018-01-03T14:58:09.930Z,100.00
2018-01-03T15:00:37.474Z,100.00
2018-01-03T15:03:05.034Z,100.00
2018-01-03T15:05:32.579Z,100.00
2018-01-03T15:08:00.109Z,100.00
2018-01-03T15:10:27.646Z,100.00
2018-01-03T15:12:55.185Z,100.00
2018-01-03T15:15:22.746Z,100.00
2018-01-03T15:17:50.300Z,100.00
2018-01-03T15:20:17.840Z,100.00
2018-01-03T15:22:45.384Z,100.00
2018-01-03T15:25:12.916Z,100.00
2018-01-03T15:27:40.465Z,100.00
2018-01-03T15:30:08.051Z,100.00
2018-01-03T15:32:35.612Z,100.00
2018-01-03T15:35:03.177Z,100.00
2018-01-03T15:37:30.708Z,100.00
2018-01-03T15:39:58.257Z,100.00
2018-01-03T15:42:25.778Z,100.00
2018-01-03T15:44:53.318Z,100.00
2018-01-03T15:47:20.875Z,100.00
2018-01-03T15:49:48.421Z,100.00
2018-01-03T15:52:15.970Z,100.00
2018-01-03T15:54:43.507Z,100.00
2018-01-03T15:57:11.036Z,100.00
2018-01-03T15:59:38.596Z,100.00
2018-01-03T16:02:06.196Z,100.00
2018-01-03T16:04:33.722Z,100.00
2018-01-03T16:07:01.267Z,100.00
2018-01-03T16:09:28.865Z,100.00
2018-01-03T16:11:56.393Z,100.00
2018-01-03T16:14:23.952Z,100.00
2018-01-03T16:16:51.472Z,100.00
2018-01-03T16:19:19.006Z,100.00
2018-01-03T16:21:46.566Z,100.00
2018-01-03T16:24:14.115Z,100.00
2018-01-03T16:26:41.652Z,100.00
2018-01-03T16:29:09.227Z,100.00
2018-01-03T16:31:36.774Z,100.00
2018-01-03T16:34:04.345Z,100.00
2018-01-03T16:36:31.900Z,100.00
2018-01-03T16:38:59.525Z,100.00
2018-01-03T16:41:27.090Z,100.00
2018-01-03T16:43:54.654Z,100.00
2018-01-03T16:46:22.182Z,100.00
2018-01-03T16:48:49.748Z,100.00
2018-01-03T16:51:17.762Z,100.00
2018-01-03T16:53:45.332Z,100.00
2018-01-03T16:56:12.898Z,100.00
2018-01-03T16:58:40.472Z,100.00
2018-01-03T17:01:08.036Z,100.00
2018-01-03T17:03:35.582Z,100.00
2018-01-03T17:06:03.128Z,100.00
2018-01-03T17:08:30.711Z,100.00
2018-01-03T17:10:58.277Z,100.00
2018-01-03T17:13:25.824Z,100.00
2018-01-03T17:15:53.371Z,100.00
2018-01-03T17:18:20.938Z,100.00
2018-01-03T17:20:48.487Z,100.00
2018-01-03T17:23:16.036Z,100.00
2018-01-03T17:25:43.573Z,100.00
2018-01-03T17:28:11.124Z,100.00
2018-01-03T17:30:38.682Z,100.00
2018-01-03T17:33:06.235Z,100.00
2018-01-03T17:35:33.765Z,100.00
2018-01-03T17:38:01.322Z,100.00
2018-01-03T17:40:28.866Z,100.00
2018-01-03T17:42:56.438Z,100.00
2018-01-03T17:45:23.998Z,100.00
2018-01-03T17:47:51.546Z,100.00
2018-01-03T17:50:19.123Z,100.00
2018-01-03T17:52:46.692Z,100.00
2018-01-03T17:55:14.248Z,100.00
2018-01-03T17:57:41.789Z,100.00
2018-01-03T18:00:09.338Z,100.00
2018-01-03T18:02:36.875Z,100.00
2018-01-03T18:05:04.487Z,100.00
2018-01-03T18:07:32.107Z,100.00
2018-01-03T18:09:59.776Z,100.00
2018-01-03T18:12:27.332Z,100.00
2018-01-03T18:14:54.913Z,100.00
2018-01-03T18:17:22.482Z,100.00
2018-01-03T18:19:50.033Z,100.00
2018-01-03T18:22:17.577Z,100.00
2018-01-03T18:24:45.138Z,100.00
2018-01-03T18:27:12.705Z,100.00
2018-01-03T18:29:40.246Z,100.00
2018-01-03T18:32:07.774Z,100.00
2018-01-03T18:34:35.322Z,100.00
2018-01-03T18:37:02.964Z,100.00
2018-01-03T18:39:30.532Z,100.00
2018-01-03T18:41:58.119Z,100.00
2018-01-03T18:44:25.702Z,100.00
2018-01-03T18:46:53.253Z,100.00
2018-01-03T18:49:20.817Z,100.00
2018-01-03T18:51:48.477Z,100.00
2018-01-03T18:54:16.192Z,100.00
2018-01-03T18:56:43.747Z,100.00
2018-01-03T18:59:11.308Z,100.00
2018-01-03T19:01:38.922Z,100.00
2018-01-03T19:04:06.604Z,100.00
2018-01-03T19:06:34.193Z,100.00
2018-01-03T19:09:01.756Z,100.00
2018-01-03T19:11:29.297Z,100.00
2018-01-03T19:13:56.857Z,100.00
2018-01-03T19:16:24.426Z,100.00
2018-01-03T19:18:51.985Z,100.00
2018-01-03T19:21:19.542Z,100.00
2018-01-03T19:23:47.103Z,100.00
2018-01-03T19:26:14.687Z,100.00
2018-01-03T19:28:42.231Z,100.00
2018-01-03T19:31:09.794Z,100.00
2018-01-03T19:33:37.355Z,100.00
2018-01-03T19:36:04.922Z,100.00
2018-01-03T19:38:32.697Z,100.00
2018-01-03T19:41:00.393Z,100.00
2018-01-03T19:43:28.051Z,100.00
2018-01-03T19:45:55.595Z,100.00
2018-01-03T19:48:23.177Z,100.00
2018-01-03T19:50:50.976Z,100.00
2018-01-03T19:53:18.566Z,100.00
2018-01-03T19:55:46.201Z,100.00
2018-01-03T19:58:13.858Z,100.00
2018-01-03T20:00:41.471Z,100.00
2018-01-03T20:03:09.099Z,100.00
2018-01-03T20:05:36.752Z,100.00
2018-01-03T20:08:04.330Z,100.00
2018-01-03T20:10:31.872Z,100.00
2018-01-03T20:12:59.597Z,100.00
2018-01-03T20:15:27.177Z,100.00
2018-01-03T20:17:54.781Z,100.00
2018-01-03T20:20:22.469Z,100.00
2018-01-03T20:22:50.167Z,100.00
2018-01-03T20:25:17.729Z,100.00
2018-01-03T20:27:45.271Z,100.00
2018-01-03T20:30:12.836Z,100.00
2018-01-03T20:32:40.387Z,100.00
2018-01-03T20:35:07.973Z,100.00
2018-01-03T20:37:35.672Z,100.00
2018-01-03T20:40:03.366Z,100.00
2018-01-03T20:42:31.106Z,100.00
2018-01-03T20:44:58.795Z,100.00
2018-01-03T20:47:26.512Z,100.00
2018-01-03T20:49:54.161Z,100.00
2018-01-03T20:52:21.737Z,100.00
2018-01-03T20:54:49.301Z,100.00
2018-01-03T20:57:16.872Z,100.00
2018-01-03T20:59:44.400Z,100.00
2018-01-03T21:02:12.122Z,100.00
2018-01-03T21:04:39.831Z,100.00
2018-01-03T21:07:07.427Z,100.00
2018-01-03T21:09:35.020Z,100.00
2018-01-03T21:12:02.617Z,100.00
2018-01-03T21:14:30.246Z,100.00
2018-01-03T21:16:57.851Z,100.00
2018-01-03T21:19:25.435Z,100.00
2018-01-03T21:21:53.036Z,100.00
2018-01-03T21:24:20.612Z,100.00
2018-01-03T21:26:48.997Z,100.00
2018-01-03T21:29:16.671Z,100.00
2018-01-03T21:31:44.236Z,100.00
2018-01-03T21:34:11.803Z,100.00
2018-01-03T21:36:39.373Z,100.00
2018-01-03T21:39:06.915Z,100.00
2018-01-03T21:41:34.457Z,100.00
2018-01-03T21:44:02.022Z,100.00
2018-01-03T21:46:29.560Z,100.00
2018-01-03T21:48:57.130Z,100.00
2018-01-03T21:51:24.683Z,100.00
2018-01-03T21:53:52.250Z,100.00
2018-01-03T21:56:19.829Z,100.00
2018-01-03T21:58:47.379Z,100.00
2018-01-03T22:01:14.953Z,100.00
2018-01-03T22:03:42.510Z,100.00
2018-01-03T22:06:10.065Z,100.00
2018-01-03T22:08:37.625Z,100.00
2018-01-03T22:11:05.176Z,100.00
2018-01-03T22:13:32.735Z,100.00
2018-01-03T22:16:00.271Z,100.00
2018-01-03T22:18:27.816Z,100.00
2018-01-03T22:20:55.372Z,100.00
2018-01-03T22:23:22.930Z,100.00
2018-01-03T22:25:50.466Z,100.00
2018-01-03T22:28:18.041Z,100.00
2018-01-03T22:30:45.581Z,100.00
2018-01-03T22:33:13.987Z,100.00
2018-01-03T22:35:42.173Z,100.00
2018-01-03T22:38:09.718Z,100.00
2018-01-03T22:40:37.256Z,100.00
2018-01-03T22:43:04.935Z,100.00
2018-01-03T22:45:32.486Z,100.00
2018-01-03T22:48:00.033Z,100.00
2018-01-03T22:50:27.602Z,100.00
2018-01-03T22:52:55.164Z,100.00
2018-01-03T22:55:22.711Z,100.00
2018-01-03T22:57:50.258Z,100.00
2018-01-03T23:00:17.818Z,100.00
2018-01-03T23:02:45.381Z,100.00
2018-01-03T23:05:12.924Z,100.00
2018-01-03T23:07:40.468Z,100.00
2018-01-03T23:10:08.026Z,100.00
2018-01-03T23:12:35.572Z,100.00
2018-01-03T23:15:03.105Z,100.00
2018-01-03T23:17:30.653Z,100.00
2018-01-03T23:19:58.198Z,100.00
2018-01-03T23:22:25.762Z,100.00
2018-01-03T23:24:53.311Z,100.00
2018-01-03T23:27:20.848Z,100.00
2018-01-03T23:29:48.388Z,100.00
2018-01-03T23:32:15.913Z,100.00
2018-01-03T23:34:43.466Z,100.00
2018-01-03T23:37:10.997Z,100.00
2018-01-03T23:39:38.544Z,100.00
2018-01-03T23:42:06.869Z,100.00
2018-01-03T23:44:34.418Z,100.00
2018-01-03T23:47:01.956Z,100.00
2018-01-03T23:49:29.538Z,100.00
2018-01-03T23:51:57.098Z,100.00
2018-01-03T23:54:24.643Z,100.00
2018-01-03T23:56:52.228Z,100.00
2018-01-03T23:59:19.776Z,100.00
